createdAt,value
2017-08-13T00:02:15.871Z,86.78
2017-08-13T00:04:43.766Z,86.57
2017-08-13T00:07:11.671Z,86.59
2017-08-13T00:09:39.566Z,86.27
2017-08-13T00:12:08.219Z,86.39
2017-08-13T00:14:36.132Z,86.52
2017-08-13T00:17:04.044Z,86.02
2017-08-13T00:19:31.956Z,86.01
2017-08-13T00:22:00.250Z,85.80
2017-08-13T00:24:28.164Z,86.14
2017-08-13T00:26:56.069Z,86.90
2017-08-13T00:29:24.367Z,87.15
2017-08-13T00:31:52.265Z,87.56
2017-08-13T00:34:20.458Z,87.48
2017-08-13T00:36:48.368Z,87.76
2017-08-13T00:39:16.282Z,87.89
2017-08-13T00:41:44.190Z,87.39
2017-08-13T00:44:12.482Z,87.50
2017-08-13T00:46:40.533Z,87.09
2017-08-13T00:49:08.840Z,86.99
2017-08-13T00:51:36.744Z,86.76
2017-08-13T00:54:04.723Z,87.16
2017-08-13T00:56:32.638Z,87.03
2017-08-13T00:59:00.952Z,86.95
2017-08-13T01:01:29.010Z,86.74
2017-08-13T01:03:57.119Z,86.56
2017-08-13T01:06:25.023Z,86.75
2017-08-13T01:08:53.328Z,86.43
2017-08-13T01:11:21.240Z,86.42
2017-08-13T01:13:49.139Z,86.65
2017-08-13T01:16:17.439Z,86.80
2017-08-13T01:18:45.352Z,86.73
2017-08-13T01:21:13.254Z,86.80
2017-08-13T01:23:41.556Z,87.17
2017-08-13T01:26:09.716Z,87.16
2017-08-13T01:28:37.610Z,87.76
2017-08-13T01:31:05.666Z,88.22
2017-08-13T01:33:33.578Z,88.18
2017-08-13T01:36:01.556Z,88.95
2017-08-13T01:38:30.480Z,88.98
2017-08-13T01:40:58.784Z,88.99
2017-08-13T01:43:26.685Z,88.88
2017-08-13T01:45:54.591Z,89.40
2017-08-13T01:48:22.507Z,89.72
2017-08-13T01:50:50.402Z,90.03
2017-08-13T01:53:18.463Z,89.82
2017-08-13T01:55:46.390Z,89.83
2017-08-13T01:58:14.292Z,89.99
2017-08-13T02:00:42.884Z,90.48
2017-08-13T02:03:10.791Z,90.02
2017-08-13T02:05:39.104Z,90.46
2017-08-13T02:08:07.013Z,90.69
2017-08-13T02:10:34.918Z,90.36
2017-08-13T02:13:02.818Z,91.04
2017-08-13T02:15:30.735Z,90.86
2017-08-13T02:17:59.026Z,91.43
2017-08-13T02:20:27.464Z,90.85
2017-08-13T02:22:55.375Z,90.75
2017-08-13T02:25:23.783Z,90.59
2017-08-13T02:27:51.700Z,90.83
2017-08-13T02:30:19.595Z,91.23
2017-08-13T02:32:47.503Z,90.75
2017-08-13T02:35:15.416Z,91.13
2017-08-13T02:37:43.741Z,90.97
2017-08-13T02:40:11.637Z,91.35
2017-08-13T02:42:39.544Z,90.81
2017-08-13T02:45:07.844Z,91.09
2017-08-13T02:47:35.968Z,90.97
2017-08-13T02:50:03.866Z,91.13
2017-08-13T02:52:32.158Z,90.96
2017-08-13T02:55:00.080Z,91.42
2017-08-13T02:57:27.983Z,91.36
2017-08-13T02:59:56.282Z,91.13
2017-08-13T03:02:24.188Z,92.05
2017-08-13T03:04:52.104Z,92.33
2017-08-13T03:07:20.002Z,91.75
2017-08-13T03:09:47.924Z,91.81
2017-08-13T03:12:16.223Z,92.00
2017-08-13T03:14:44.555Z,92.15
2017-08-13T03:17:12.452Z,92.26
2017-08-13T03:19:40.757Z,91.85
2017-08-13T03:22:08.675Z,91.53
2017-08-13T03:24:36.645Z,91.95
2017-08-13T03:27:04.559Z,91.75
2017-08-13T03:29:32.460Z,91.76
2017-08-13T03:32:00.448Z,91.58
2017-08-13T03:34:28.344Z,91.28
2017-08-13T03:36:56.651Z,91.16
2017-08-13T03:39:24.546Z,90.64
2017-08-13T03:41:52.468Z,90.39
2017-08-13T03:44:20.760Z,90.00
2017-08-13T03:46:48.892Z,89.57
2017-08-13T03:49:16.799Z,89.07
2017-08-13T03:51:44.714Z,89.11
2017-08-13T03:54:12.627Z,88.90
2017-08-13T03:56:40.981Z,88.91
2017-08-13T03:59:08.899Z,89.06
2017-08-13T04:01:36.810Z,88.64
2017-08-13T04:04:04.717Z,88.70
2017-08-13T04:06:32.619Z,88.32
2017-08-13T04:09:00.530Z,88.10
2017-08-13T04:11:28.436Z,88.10
2017-08-13T04:13:56.560Z,88.14
2017-08-13T04:16:24.528Z,87.83
2017-08-13T04:18:52.436Z,87.48
2017-08-13T04:21:20.338Z,87.38
2017-08-13T04:23:48.252Z,87.48
2017-08-13T04:26:16.565Z,86.71
2017-08-13T04:28:44.476Z,86.43
2017-08-13T04:31:12.377Z,85.95
2017-08-13T04:33:40.679Z,85.89
2017-08-13T04:36:08.590Z,85.94
2017-08-13T04:38:36.491Z,86.03
2017-08-13T04:41:04.800Z,85.95
2017-08-13T04:43:32.690Z,86.26
2017-08-13T04:46:00.603Z,85.65
2017-08-13T04:48:29.208Z,85.30
2017-08-13T04:50:57.124Z,83.61
2017-08-13T04:53:25.022Z,82.99
2017-08-13T04:55:53.484Z,82.96
2017-08-13T04:58:21.396Z,82.64
2017-08-13T05:00:49.295Z,82.80
2017-08-13T05:03:17.216Z,83.05
2017-08-13T05:05:45.520Z,83.01
2017-08-13T05:08:13.429Z,82.39
2017-08-13T05:10:41.330Z,82.62
2017-08-13T05:13:09.625Z,81.82
2017-08-13T05:15:37.523Z,81.87
2017-08-13T05:18:05.619Z,82.22
2017-08-13T05:20:33.526Z,81.86
2017-08-13T05:23:02.117Z,81.38
2017-08-13T05:25:30.032Z,81.42
2017-08-13T05:27:57.940Z,81.36
2017-08-13T05:30:26.242Z,81.85
2017-08-13T05:32:54.152Z,81.57
2017-08-13T05:35:22.233Z,79.02
2017-08-13T05:37:50.130Z,77.71
2017-08-13T05:40:18.436Z,77.59
2017-08-13T05:42:46.348Z,77.71
2017-08-13T05:45:14.241Z,77.30
2017-08-13T05:47:42.543Z,77.51
2017-08-13T05:50:10.452Z,77.56
2017-08-13T05:52:38.372Z,77.42
2017-08-13T05:55:06.312Z,77.34
2017-08-13T05:57:34.527Z,77.50
2017-08-13T06:00:02.436Z,77.78
2017-08-13T06:02:30.340Z,77.83
2017-08-13T06:04:58.686Z,77.86
2017-08-13T06:07:26.596Z,77.33
2017-08-13T06:09:54.912Z,76.61
2017-08-13T06:12:22.820Z,74.61
2017-08-13T06:14:50.885Z,74.33
2017-08-13T06:17:18.791Z,73.50
2017-08-13T06:19:46.694Z,73.34
2017-08-13T06:22:14.604Z,72.36
2017-08-13T06:24:42.908Z,72.13
2017-08-13T06:27:10.815Z,71.22
2017-08-13T06:29:38.718Z,66.16
2017-08-13T06:32:06.621Z,63.33
2017-08-13T06:34:34.532Z,61.77
2017-08-13T06:37:02.440Z,61.27
2017-08-13T06:39:30.751Z,60.57
2017-08-13T06:41:58.655Z,61.84
2017-08-13T06:44:26.558Z,60.48
2017-08-13T06:46:54.464Z,60.30
2017-08-13T06:49:22.573Z,59.50
2017-08-13T06:51:50.470Z,59.87
2017-08-13T06:54:18.370Z,59.54
2017-08-13T06:56:46.282Z,60.39
2017-08-13T06:59:14.177Z,59.77
2017-08-13T07:01:42.095Z,60.94
2017-08-13T07:04:09.996Z,61.71
2017-08-13T07:06:38.308Z,63.19
2017-08-13T07:09:06.214Z,62.58
2017-08-13T07:11:34.263Z,60.26
2017-08-13T07:14:02.155Z,54.48
2017-08-13T07:16:30.087Z,48.29
2017-08-13T07:18:57.996Z,43.40
2017-08-13T07:21:25.887Z,43.33
2017-08-13T07:23:54.201Z,45.25
2017-08-13T07:26:22.103Z,45.70
2017-08-13T07:28:50.010Z,45.09
2017-08-13T07:31:18.317Z,45.84
2017-08-13T07:33:46.380Z,46.63
2017-08-13T07:36:14.361Z,46.53
2017-08-13T07:38:42.252Z,46.74
2017-08-13T07:41:10.167Z,46.31
2017-08-13T07:43:38.454Z,47.77
2017-08-13T07:46:06.384Z,48.75
2017-08-13T07:48:35.207Z,45.93
2017-08-13T07:51:03.618Z,47.38
2017-08-13T07:53:31.516Z,43.54
2017-08-13T07:55:59.436Z,38.55
2017-08-13T07:58:27.341Z,34.24
2017-08-13T08:00:55.422Z,32.81
2017-08-13T08:03:23.325Z,32.75
2017-08-13T08:05:51.615Z,34.46
2017-08-13T08:08:19.919Z,34.56
2017-08-13T08:10:47.827Z,35.02
2017-08-13T08:13:15.735Z,33.53
2017-08-13T08:15:43.648Z,33.83
2017-08-13T08:18:11.641Z,36.25
2017-08-13T08:20:39.543Z,37.14
2017-08-13T08:23:07.684Z,35.74
2017-08-13T08:25:35.578Z,33.78
2017-08-13T08:28:03.884Z,33.32
2017-08-13T08:30:31.782Z,32.53
2017-08-13T08:32:59.682Z,31.14
2017-08-13T08:35:27.986Z,29.80
2017-08-13T08:37:56.157Z,31.76
2017-08-13T08:40:24.070Z,32.45
2017-08-13T08:42:51.970Z,32.98
2017-08-13T08:45:20.577Z,32.07
2017-08-13T08:47:48.496Z,31.25
2017-08-13T08:50:16.390Z,29.63
2017-08-13T08:52:44.705Z,27.68
2017-08-13T08:55:12.607Z,26.22
2017-08-13T08:57:40.580Z,26.22
2017-08-13T09:00:08.489Z,26.91
2017-08-13T09:02:36.820Z,29.26
2017-08-13T09:05:04.728Z,34.19
2017-08-13T09:07:33.031Z,36.30
2017-08-13T09:10:00.936Z,35.92
2017-08-13T09:12:29.019Z,33.80
2017-08-13T09:14:56.923Z,31.87
2017-08-13T09:17:25.228Z,28.40
2017-08-13T09:19:53.148Z,28.04
2017-08-13T09:22:21.107Z,26.42
2017-08-13T09:24:49.029Z,25.13
2017-08-13T09:27:16.937Z,24.51
2017-08-13T09:29:44.851Z,23.70
2017-08-13T09:32:13.150Z,24.04
2017-08-13T09:34:41.163Z,24.74
2017-08-13T09:37:09.081Z,24.33
2017-08-13T09:39:36.989Z,25.37
2017-08-13T09:42:04.893Z,23.83
2017-08-13T09:44:33.201Z,23.22
2017-08-13T09:47:01.120Z,22.90
2017-08-13T09:49:29.028Z,23.63
2017-08-13T09:51:56.944Z,25.54
2017-08-13T09:54:24.840Z,28.58
2017-08-13T09:56:53.158Z,27.01
2017-08-13T09:59:21.068Z,27.25
2017-08-13T10:01:48.978Z,27.58
2017-08-13T10:04:16.887Z,30.15
2017-08-13T10:06:45.106Z,30.65
2017-08-13T10:09:13.010Z,31.37
2017-08-13T10:12:59.964Z,30.83
2017-08-13T10:15:27.868Z,32.35
2017-08-13T10:17:55.776Z,32.55
2017-08-13T10:20:23.708Z,30.05
2017-08-13T10:22:51.997Z,27.42
2017-08-13T10:25:19.921Z,27.01
2017-08-13T10:27:47.835Z,27.71
2017-08-13T10:30:15.738Z,26.82
2017-08-13T10:32:43.643Z,27.49
2017-08-13T10:35:11.702Z,25.75
2017-08-13T10:37:39.670Z,25.94
2017-08-13T10:40:07.891Z,29.19
2017-08-13T10:42:35.812Z,31.08
2017-08-13T10:45:03.720Z,31.12
2017-08-13T10:47:32.043Z,33.33
2017-08-13T10:49:59.963Z,34.33
2017-08-13T10:52:27.900Z,36.96
2017-08-13T10:54:55.808Z,37.83
2017-08-13T10:57:24.119Z,39.55
2017-08-13T10:59:52.028Z,36.76
2017-08-13T11:02:20.102Z,36.59
2017-08-13T11:04:47.998Z,36.98
2017-08-13T11:07:15.916Z,35.77
2017-08-13T11:09:43.844Z,34.29
2017-08-13T11:12:11.738Z,34.77
2017-08-13T11:14:39.668Z,33.49
2017-08-13T11:17:07.964Z,33.76
2017-08-13T11:19:35.878Z,33.04
2017-08-13T11:22:03.779Z,35.30
2017-08-13T11:24:32.103Z,36.26
2017-08-13T11:27:00.009Z,37.10
2017-08-13T11:29:28.076Z,37.23
2017-08-13T11:31:56.035Z,36.88
2017-08-13T11:34:23.939Z,36.57
2017-08-13T11:36:51.872Z,36.81
2017-08-13T11:39:19.771Z,36.07
2017-08-13T11:41:48.082Z,36.62
2017-08-13T11:44:15.989Z,37.93
2017-08-13T11:46:43.904Z,38.16
2017-08-13T11:49:11.812Z,38.44
2017-08-13T11:51:39.717Z,38.94
2017-08-13T11:54:08.015Z,37.80
2017-08-13T11:56:36.152Z,37.62
2017-08-13T11:59:04.066Z,37.10
2017-08-13T12:01:31.977Z,37.52
2017-08-13T12:03:59.893Z,38.82
2017-08-13T12:06:27.806Z,39.29
2017-08-13T12:08:55.721Z,40.17
2017-08-13T12:11:24.028Z,40.42
2017-08-13T12:13:51.942Z,41.00
2017-08-13T12:16:19.838Z,40.08
2017-08-13T12:18:48.147Z,41.22
2017-08-13T12:21:16.056Z,41.23
2017-08-13T12:23:43.958Z,41.81
2017-08-13T12:26:11.872Z,42.52
2017-08-13T12:28:39.907Z,42.42
2017-08-13T12:31:07.821Z,41.94
2017-08-13T12:33:35.718Z,43.14
2017-08-13T12:36:04.332Z,43.09
2017-08-13T12:38:32.236Z,44.32
2017-08-13T12:41:00.319Z,44.93
2017-08-13T12:43:28.216Z,45.30
2017-08-13T12:45:56.507Z,46.13
2017-08-13T12:48:24.431Z,46.76
2017-08-13T12:50:52.340Z,47.21
2017-08-13T12:53:20.643Z,46.58
2017-08-13T12:55:48.538Z,44.82
2017-08-13T12:58:16.460Z,44.57
2017-08-13T13:00:44.770Z,45.42
2017-08-13T13:03:12.880Z,45.64
2017-08-13T13:05:40.773Z,45.37
2017-08-13T13:08:09.067Z,45.60
2017-08-13T13:10:36.982Z,44.91
2017-08-13T13:13:04.883Z,45.15
2017-08-13T13:15:33.188Z,44.81
2017-08-13T13:18:01.092Z,44.20
2017-08-13T13:20:29.002Z,43.66
2017-08-13T13:22:57.594Z,43.55
2017-08-13T13:25:25.667Z,43.97
2017-08-13T13:27:54.256Z,44.48
2017-08-13T13:30:22.154Z,45.19
2017-08-13T13:32:50.062Z,47.17
2017-08-13T13:35:18.010Z,45.83
2017-08-13T13:37:45.928Z,46.86
2017-08-13T13:40:14.104Z,46.65
2017-08-13T13:42:42.016Z,45.97
2017-08-13T13:45:09.914Z,45.74
2017-08-13T13:47:37.977Z,45.97
2017-08-13T13:50:05.883Z,45.33
2017-08-13T13:52:33.783Z,45.69
2017-08-13T13:55:01.702Z,46.90
2017-08-13T13:57:30.066Z,47.30
2017-08-13T13:59:58.132Z,48.02
2017-08-13T14:02:26.030Z,46.60
2017-08-13T14:04:54.335Z,46.98
2017-08-13T14:07:22.291Z,47.59
2017-08-13T14:09:50.409Z,48.44
2017-08-13T14:12:18.317Z,47.76
2017-08-13T14:14:46.214Z,46.33
2017-08-13T14:17:14.127Z,46.30
2017-08-13T14:19:42.030Z,46.19
2017-08-13T14:22:09.934Z,44.98
2017-08-13T14:24:37.839Z,43.88
2017-08-13T14:27:06.067Z,45.50
2017-08-13T14:29:33.963Z,44.73
2017-08-13T14:32:01.876Z,44.96
2017-08-13T14:34:30.467Z,44.94
2017-08-13T14:36:58.388Z,45.12
2017-08-13T14:39:26.303Z,45.11
2017-08-13T14:41:54.605Z,45.14
2017-08-13T14:44:22.511Z,45.26
2017-08-13T14:46:50.408Z,45.13
2017-08-13T14:49:19.003Z,45.69
2017-08-13T14:51:46.908Z,44.92
2017-08-13T14:54:14.847Z,45.35
2017-08-13T14:56:42.750Z,46.06
2017-08-13T14:59:10.829Z,45.76
2017-08-13T15:01:38.732Z,45.22
2017-08-13T15:04:07.038Z,45.28
2017-08-13T15:06:34.948Z,45.94
2017-08-13T15:09:02.850Z,45.01
2017-08-13T15:11:31.155Z,45.92
2017-08-13T15:13:59.319Z,45.49
2017-08-13T15:16:27.224Z,45.66
2017-08-13T15:18:55.122Z,46.56
2017-08-13T15:21:23.040Z,46.67
2017-08-13T15:23:50.934Z,47.19
2017-08-13T15:26:18.856Z,47.53
2017-08-13T15:28:46.770Z,47.72
2017-08-13T15:31:14.761Z,48.07
2017-08-13T15:33:42.703Z,47.99
2017-08-13T15:36:10.998Z,48.32
2017-08-13T15:38:38.908Z,47.97
2017-08-13T15:41:07.210Z,47.14
2017-08-13T15:43:35.126Z,46.69
2017-08-13T15:46:03.031Z,46.73
2017-08-13T15:48:30.933Z,46.53
2017-08-13T15:50:58.849Z,46.70
2017-08-13T15:53:27.402Z,46.63
2017-08-13T15:55:55.303Z,46.91
2017-08-13T15:58:23.616Z,47.02
2017-08-13T16:00:52.319Z,46.98
2017-08-13T16:03:20.227Z,47.10
2017-08-13T16:05:48.149Z,47.55
2017-08-13T16:08:16.294Z,47.88
2017-08-13T16:10:44.200Z,47.22
2017-08-13T16:13:12.098Z,47.56
2017-08-13T16:15:40.169Z,47.64
2017-08-13T16:18:08.071Z,47.17
2017-08-13T16:20:35.983Z,47.65
2017-08-13T16:23:03.901Z,47.48
2017-08-13T16:25:32.186Z,47.56
2017-08-13T16:28:00.091Z,47.85
2017-08-13T16:30:27.995Z,48.34
2017-08-13T16:32:55.911Z,48.41
2017-08-13T16:35:23.922Z,48.54
2017-08-13T16:37:52.000Z,48.81
2017-08-13T16:40:19.908Z,48.31
2017-08-13T16:42:47.807Z,48.86
2017-08-13T16:45:15.724Z,48.57
2017-08-13T16:47:44.031Z,49.23
2017-08-13T16:50:11.966Z,50.16
2017-08-13T16:52:39.873Z,50.26
2017-08-13T16:55:07.775Z,50.58
2017-08-13T16:57:35.680Z,50.23
2017-08-13T17:00:04.135Z,50.50
2017-08-13T17:02:32.044Z,50.89
2017-08-13T17:04:59.951Z,50.10
2017-08-13T17:07:28.311Z,49.90
2017-08-13T17:09:56.979Z,49.18
2017-08-13T17:12:24.900Z,49.08
2017-08-13T17:14:52.825Z,49.24
2017-08-13T17:17:20.751Z,49.64
2017-08-13T17:19:48.651Z,50.43
2017-08-13T17:22:16.567Z,50.99
2017-08-13T17:24:44.458Z,51.03
2017-08-13T17:27:12.361Z,51.50
2017-08-13T17:29:40.262Z,51.56
2017-08-13T17:32:08.172Z,51.96
2017-08-13T17:34:36.079Z,52.57
2017-08-13T17:37:03.988Z,52.69
2017-08-13T17:39:31.904Z,53.28
2017-08-13T17:41:59.812Z,53.80
2017-08-13T17:44:27.732Z,53.78
2017-08-13T17:46:56.088Z,54.03
2017-08-13T17:49:24.138Z,54.54
2017-08-13T17:51:52.048Z,55.87
2017-08-13T17:54:20.353Z,56.98
2017-08-13T17:56:48.262Z,57.06
2017-08-13T17:59:16.168Z,58.30
2017-08-13T18:01:44.088Z,58.46
2017-08-13T18:04:11.992Z,58.59
2017-08-13T18:06:40.350Z,58.46
2017-08-13T18:09:08.242Z,58.40
2017-08-13T18:11:36.555Z,57.99
2017-08-13T18:14:04.446Z,57.98
2017-08-13T18:16:32.368Z,58.30
2017-08-13T18:19:00.707Z,58.46
2017-08-13T18:21:28.607Z,59.19
2017-08-13T18:23:56.928Z,58.96
2017-08-13T18:26:24.900Z,59.33
2017-08-13T18:28:52.836Z,59.25
2017-08-13T18:31:20.758Z,59.07
2017-08-13T18:33:48.835Z,59.11
2017-08-13T18:36:16.745Z,59.22
2017-08-13T18:38:45.052Z,60.54
2017-08-13T18:41:12.976Z,60.64
2017-08-13T18:43:41.285Z,60.59
2017-08-13T18:46:09.207Z,60.82
2017-08-13T18:48:37.106Z,61.41
2017-08-13T18:51:05.028Z,61.24
2017-08-13T18:53:32.922Z,61.38
2017-08-13T18:56:01.221Z,61.87
2017-08-13T18:58:29.164Z,61.67
2017-08-13T19:00:57.100Z,62.21
2017-08-13T19:03:25.003Z,62.08
2017-08-13T19:05:52.907Z,62.64
2017-08-13T19:08:20.816Z,62.61
2017-08-13T19:10:48.891Z,63.08
2017-08-13T19:13:16.845Z,63.13
2017-08-13T19:15:45.088Z,63.12
2017-08-13T19:18:13.063Z,63.08
2017-08-13T19:20:41.083Z,63.64
2017-08-13T19:23:08.986Z,63.31
2017-08-13T19:25:37.301Z,63.11
2017-08-13T19:28:05.294Z,63.25
2017-08-13T19:30:33.469Z,63.87
2017-08-13T19:33:01.539Z,64.00
2017-08-13T19:35:29.444Z,63.94
2017-08-13T19:37:57.761Z,64.18
2017-08-13T19:40:25.922Z,64.43
2017-08-13T19:42:53.843Z,65.12
2017-08-13T19:45:21.815Z,64.94
2017-08-13T19:47:49.719Z,64.94
2017-08-13T19:50:17.659Z,64.92
2017-08-13T19:52:45.567Z,65.50
2017-08-13T19:55:13.479Z,65.93
2017-08-13T19:57:41.387Z,65.94
2017-08-13T20:00:09.931Z,66.37
2017-08-13T20:02:37.846Z,66.82
2017-08-13T20:05:05.751Z,66.65
2017-08-13T20:07:33.668Z,66.34
2017-08-13T20:10:01.980Z,66.44
2017-08-13T20:12:30.053Z,66.08
2017-08-13T20:14:57.957Z,66.20
2017-08-13T20:17:25.863Z,66.14
2017-08-13T20:19:54.177Z,66.55
2017-08-13T20:22:22.110Z,67.49
2017-08-13T20:24:50.033Z,67.15
2017-08-13T20:27:18.123Z,67.14
2017-08-13T20:29:46.017Z,66.89
2017-08-13T20:32:14.338Z,66.13
2017-08-13T20:34:42.247Z,66.13
2017-08-13T20:37:10.147Z,66.10
2017-08-13T20:39:38.064Z,65.94
2017-08-13T20:42:05.963Z,66.56
2017-08-13T20:44:34.413Z,66.52
2017-08-13T20:47:02.324Z,65.91
2017-08-13T20:49:30.627Z,66.08
2017-08-13T20:51:58.535Z,66.46
2017-08-13T20:54:26.498Z,66.46
2017-08-13T20:56:54.411Z,65.60
2017-08-13T20:59:22.701Z,65.64
2017-08-13T21:01:50.618Z,65.62
2017-08-13T21:04:18.519Z,66.19
2017-08-13T21:06:46.822Z,65.53
2017-08-13T21:09:14.723Z,65.43
2017-08-13T21:11:42.632Z,65.37
2017-08-13T21:14:10.936Z,66.37
2017-08-13T21:16:38.844Z,65.54
2017-08-13T21:19:06.750Z,65.65
2017-08-13T21:21:35.587Z,66.02
2017-08-13T21:24:03.490Z,65.28
2017-08-13T21:26:31.408Z,64.95
2017-08-13T21:28:59.514Z,65.15
2017-08-13T21:31:27.420Z,64.97
2017-08-13T21:33:56.019Z,64.86
2017-08-13T21:36:23.935Z,64.68
2017-08-13T21:38:51.831Z,64.90
2017-08-13T21:41:20.148Z,65.14
2017-08-13T21:43:48.047Z,64.88
2017-08-13T21:46:15.951Z,65.19
2017-08-13T21:48:44.251Z,65.20
2017-08-13T21:51:12.374Z,65.85
2017-08-13T21:53:40.286Z,66.00
2017-08-13T21:56:08.578Z,66.27
2017-08-13T21:58:36.501Z,65.69
2017-08-13T22:01:04.408Z,66.71
2017-08-13T22:03:46.871Z,65.80
2017-08-13T22:06:14.766Z,66.29
2017-08-13T22:08:43.070Z,65.47
2017-08-13T22:11:10.967Z,65.33
2017-08-13T22:13:39.259Z,65.78
2017-08-13T22:16:07.159Z,66.43
2017-08-13T22:18:35.453Z,67.19
2017-08-13T22:21:03.358Z,67.33
2017-08-13T22:23:31.255Z,67.47
2017-08-13T22:25:59.173Z,68.05
2017-08-13T22:28:27.080Z,68.46
2017-08-13T22:30:55.012Z,69.27
2017-08-13T22:33:22.914Z,69.25
2017-08-13T22:35:50.848Z,69.25
2017-08-13T22:38:18.743Z,70.22
2017-08-13T22:40:46.652Z,71.22
2017-08-13T22:43:14.962Z,72.19
2017-08-13T22:45:43.085Z,72.29
2017-08-13T22:48:10.995Z,71.48
2017-08-13T22:50:38.891Z,70.83
2017-08-13T22:53:06.808Z,71.17
2017-08-13T22:55:35.112Z,71.93
2017-08-13T22:58:03.035Z,72.38
2017-08-13T23:00:30.939Z,72.27
2017-08-13T23:02:58.881Z,71.71
2017-08-13T23:05:26.779Z,72.09
2017-08-13T23:07:54.695Z,72.54
2017-08-13T23:10:22.608Z,72.27
2017-08-13T23:12:50.639Z,73.49
2017-08-13T23:15:18.546Z,74.20
2017-08-13T23:17:46.926Z,73.31
2017-08-13T23:20:15.231Z,73.11
2017-08-13T23:22:43.134Z,73.24
2017-08-13T23:25:11.354Z,73.49
2017-08-13T23:27:39.269Z,73.36
2017-08-13T23:30:07.188Z,73.19
2017-08-13T23:32:35.778Z,73.53
2017-08-13T23:35:03.687Z,73.34
2017-08-13T23:37:31.595Z,73.50
2017-08-13T23:39:59.643Z,73.62
2017-08-13T23:42:27.556Z,74.77
2017-08-13T23:44:55.457Z,74.92
2017-08-13T23:47:23.363Z,74.89
2017-08-13T23:49:51.282Z,74.81
2017-08-13T23:52:19.196Z,75.37
2017-08-13T23:54:47.104Z,75.44
2017-08-13T23:57:15.023Z,74.85
2017-08-13T23:59:42.928Z,75.42
